createdAt,value
2018-03-29T00:00:24.997Z,5.73
2018-03-29T00:01:29.767Z,5.82
2018-03-29T00:03:18.189Z,5.78
2018-03-29T00:04:15.217Z,5.71
2018-03-29T00:06:08.167Z,5.83
2018-03-29T00:07:09.129Z,5.71
2018-03-29T00:09:01.251Z,5.66
2018-03-29T00:10:01.116Z,5.70
2018-03-29T00:11:54.160Z,5.74
2018-03-29T00:12:56.046Z,5.68
2018-03-29T00:14:59.130Z,5.64
2018-03-29T00:16:00.560Z,5.70
2018-03-29T00:17:51.907Z,5.73
2018-03-29T00:18:54.862Z,5.68
2018-03-29T00:20:45.786Z,5.82
2018-03-29T00:21:44.715Z,5.83
2018-03-29T00:23:37.856Z,5.82
2018-03-29T00:24:39.702Z,5.81
2018-03-29T00:26:30.779Z,5.81
2018-03-29T00:27:30.628Z,5.89
2018-03-29T00:29:23.698Z,5.85
2018-03-29T00:30:23.671Z,5.81
2018-03-29T00:32:19.175Z,5.82
2018-03-29T00:33:16.604Z,5.91
2018-03-29T00:35:10.477Z,5.89
2018-03-29T00:36:09.549Z,5.95
2018-03-29T00:38:13.512Z,5.93
2018-03-29T00:39:02.474Z,5.83
2018-03-29T00:40:56.394Z,5.89
2018-03-29T00:41:55.438Z,5.92
2018-03-29T00:43:48.428Z,5.78
2018-03-29T00:44:48.445Z,5.78
2018-03-29T00:46:41.417Z,5.88
2018-03-29T00:47:41.348Z,5.81
2018-03-29T00:49:34.803Z,5.81
2018-03-29T00:50:34.289Z,5.73
2018-03-29T00:52:28.751Z,5.85
2018-03-29T00:53:27.239Z,5.75
2018-03-29T00:55:20.258Z,5.81
2018-03-29T00:56:21.172Z,5.81
2018-03-29T00:58:16.122Z,5.86
2018-03-29T00:59:15.143Z,5.88
2018-03-29T01:01:06.343Z,5.85
2018-03-29T01:02:06.106Z,6.00
2018-03-29T01:04:00.070Z,6.00
2018-03-29T01:05:00.084Z,5.88
2018-03-29T01:06:52.164Z,5.92
2018-03-29T01:07:52.099Z,6.03
2018-03-29T01:09:45.052Z,5.98
2018-03-29T01:10:45.989Z,5.95
2018-03-29T01:12:38.555Z,5.95
2018-03-29T01:13:38.942Z,6.00
2018-03-29T01:15:35.734Z,6.06
2018-03-29T01:16:35.333Z,5.98
2018-03-29T01:18:28.161Z,5.98
2018-03-29T01:19:28.262Z,5.89
2018-03-29T01:21:21.222Z,5.98
2018-03-29T01:22:21.124Z,5.96
2018-03-29T01:24:14.077Z,5.96
2018-03-29T01:25:14.124Z,5.96
2018-03-29T01:27:09.076Z,5.98
2018-03-29T01:28:10.037Z,5.89
2018-03-29T01:30:00.594Z,5.91
2018-03-29T01:31:01.605Z,5.89
2018-03-29T01:32:54.661Z,5.98
2018-03-29T01:33:55.002Z,5.96
2018-03-29T01:35:48.823Z,5.93
2018-03-29T01:36:48.832Z,5.96
2018-03-29T01:38:41.771Z,6.01
2018-03-29T01:39:41.707Z,6.00
2018-03-29T01:41:35.362Z,5.92
2018-03-29T01:42:37.155Z,5.95
2018-03-29T01:44:28.240Z,5.89
2018-03-29T01:45:30.297Z,5.86
2018-03-29T01:47:21.287Z,5.83
2018-03-29T01:48:22.158Z,5.75
2018-03-29T01:50:15.266Z,5.74
2018-03-29T01:51:14.123Z,5.81
2018-03-29T01:53:07.178Z,5.83
2018-03-29T01:54:07.019Z,5.78
2018-03-29T01:56:00.621Z,5.91
2018-03-29T01:56:59.968Z,5.93
2018-03-29T01:58:52.929Z,5.88
2018-03-29T01:59:52.946Z,5.91
2018-03-29T02:01:45.906Z,5.86
2018-03-29T02:02:45.891Z,5.88
2018-03-29T02:04:38.881Z,6.01
2018-03-29T02:05:38.859Z,5.98
2018-03-29T02:07:31.788Z,5.98
2018-03-29T02:08:31.797Z,5.93
2018-03-29T02:10:24.781Z,5.91
2018-03-29T02:11:24.748Z,5.82
2018-03-29T02:13:17.714Z,5.88
2018-03-29T02:14:17.715Z,5.85
2018-03-29T02:16:10.682Z,5.88
2018-03-29T02:17:10.671Z,5.78
2018-03-29T02:19:03.620Z,5.75
2018-03-29T02:20:03.620Z,5.82
2018-03-29T02:21:03.628Z,5.81
2018-03-29T02:22:03.693Z,5.82
2018-03-29T02:23:03.625Z,5.86
2018-03-29T02:24:03.652Z,5.88
2018-03-29T02:25:03.639Z,5.86
2018-03-29T02:26:03.636Z,5.83
2018-03-29T02:27:03.637Z,5.85
2018-03-29T02:28:03.646Z,5.85
2018-03-29T02:29:03.642Z,5.81
2018-03-29T02:30:03.645Z,5.89
2018-03-29T02:31:03.639Z,5.82
2018-03-29T02:32:03.643Z,5.88
2018-03-29T02:33:03.649Z,5.89
2018-03-29T02:34:03.655Z,5.88
2018-03-29T02:35:03.649Z,5.91
2018-03-29T02:36:03.658Z,5.85
2018-03-29T02:37:03.657Z,5.86
2018-03-29T02:38:03.661Z,5.81
2018-03-29T02:39:03.655Z,5.83
2018-03-29T02:40:03.661Z,5.88
2018-03-29T02:41:03.672Z,5.85
2018-03-29T02:42:03.683Z,5.83
2018-03-29T02:43:03.683Z,5.82
2018-03-29T02:44:03.679Z,5.77
2018-03-29T02:45:03.688Z,5.78
2018-03-29T02:46:03.679Z,5.83
2018-03-29T02:47:03.713Z,5.82
2018-03-29T02:48:03.679Z,5.85
2018-03-29T02:49:03.696Z,5.85
2018-03-29T02:50:03.688Z,5.88
2018-03-29T02:51:03.685Z,5.82
2018-03-29T02:52:03.690Z,5.82
2018-03-29T02:53:03.696Z,5.85
2018-03-29T02:54:03.699Z,5.85
2018-03-29T02:55:03.700Z,5.85
2018-03-29T02:56:03.700Z,5.82
2018-03-29T02:57:03.704Z,5.78
2018-03-29T02:58:03.701Z,5.86
2018-03-29T02:59:03.709Z,5.92
2018-03-29T03:00:03.713Z,5.91
2018-03-29T03:01:03.707Z,5.89
2018-03-29T03:02:03.715Z,5.92
2018-03-29T03:03:03.717Z,5.85
2018-03-29T03:04:03.719Z,5.88
2018-03-29T03:05:03.713Z,5.78
2018-03-29T03:06:03.723Z,5.82
2018-03-29T03:07:03.722Z,5.78
2018-03-29T03:08:03.731Z,5.81
2018-03-29T03:09:03.722Z,5.83
2018-03-29T03:10:03.731Z,5.81
2018-03-29T03:11:03.728Z,5.85
2018-03-29T03:12:03.730Z,5.85
2018-03-29T03:13:03.732Z,5.78
2018-03-29T03:14:04.118Z,5.78
2018-03-29T03:15:03.742Z,5.77
2018-03-29T03:16:03.842Z,5.83
2018-03-29T03:17:03.748Z,5.77
2018-03-29T03:18:03.741Z,5.81
2018-03-29T03:19:03.755Z,5.81
2018-03-29T03:20:03.745Z,5.82
2018-03-29T03:21:03.755Z,5.83
2018-03-29T03:22:03.756Z,5.86
2018-03-29T03:23:03.754Z,5.85
2018-03-29T03:24:03.762Z,5.88
2018-03-29T03:25:03.757Z,5.85
2018-03-29T03:26:03.764Z,5.82
2018-03-29T03:27:03.759Z,5.82
2018-03-29T03:28:03.763Z,5.85
2018-03-29T03:29:03.772Z,5.81
2018-03-29T03:30:03.780Z,5.85
2018-03-29T03:31:03.779Z,5.88
2018-03-29T03:32:03.783Z,5.91
2018-03-29T03:33:03.781Z,5.93
2018-03-29T03:34:03.783Z,5.93
2018-03-29T03:35:03.776Z,5.91
2018-03-29T03:36:03.790Z,5.88
2018-03-29T03:37:03.824Z,5.88
2018-03-29T03:38:03.791Z,5.88
2018-03-29T03:39:03.784Z,5.93
2018-03-29T03:40:03.795Z,5.89
2018-03-29T03:41:03.794Z,5.88
2018-03-29T03:42:03.797Z,5.98
2018-03-29T03:43:03.795Z,5.86
2018-03-29T03:44:03.803Z,5.98
2018-03-29T03:45:03.819Z,5.98
2018-03-29T03:46:03.801Z,6.01
2018-03-29T03:47:03.808Z,5.93
2018-03-29T03:48:03.814Z,5.89
2018-03-29T03:49:03.808Z,5.91
2018-03-29T03:50:03.808Z,5.93
2018-03-29T03:51:03.819Z,5.85
2018-03-29T03:52:03.819Z,5.91
2018-03-29T03:53:03.821Z,5.91
2018-03-29T03:54:03.828Z,5.96
2018-03-29T03:55:03.835Z,5.95
2018-03-29T03:56:03.829Z,5.95
2018-03-29T03:57:03.838Z,5.98
2018-03-29T03:58:03.836Z,6.00
2018-03-29T03:59:03.828Z,6.04
2018-03-29T04:00:03.848Z,6.01
2018-03-29T04:01:03.841Z,6.06
2018-03-29T04:02:03.844Z,5.92
2018-03-29T04:03:03.843Z,5.98
2018-03-29T04:04:03.846Z,5.96
2018-03-29T04:05:03.841Z,5.98
2018-03-29T04:06:03.844Z,6.01
2018-03-29T04:07:03.854Z,6.00
2018-03-29T04:08:03.848Z,6.07
2018-03-29T04:09:03.860Z,6.09
2018-03-29T04:10:03.861Z,6.03
2018-03-29T04:11:03.868Z,6.10
2018-03-29T04:12:03.856Z,6.13
2018-03-29T04:13:03.867Z,6.11
2018-03-29T04:14:03.864Z,6.13
2018-03-29T04:15:03.871Z,6.14
2018-03-29T04:16:03.884Z,6.16
2018-03-29T04:17:03.885Z,6.10
2018-03-29T04:18:03.891Z,6.10
2018-03-29T04:19:03.903Z,6.11
2018-03-29T04:20:03.892Z,6.10
2018-03-29T04:21:03.907Z,6.14
2018-03-29T04:22:03.903Z,6.14
2018-03-29T04:23:03.894Z,6.16
2018-03-29T04:24:03.937Z,6.13
2018-03-29T04:25:03.887Z,6.10
2018-03-29T04:26:03.905Z,6.16
2018-03-29T04:27:03.897Z,6.10
2018-03-29T04:28:03.896Z,6.14
2018-03-29T04:29:03.905Z,6.18
2018-03-29T04:30:03.907Z,6.18
2018-03-29T04:31:03.912Z,6.13
2018-03-29T04:32:03.911Z,6.10
2018-03-29T04:33:03.921Z,6.13
2018-03-29T04:34:03.968Z,6.18
2018-03-29T04:35:03.915Z,6.25
2018-03-29T04:36:03.914Z,6.29
2018-03-29T04:37:03.916Z,6.21
2018-03-29T04:38:03.927Z,6.19
2018-03-29T04:39:03.931Z,6.21
2018-03-29T04:40:03.924Z,6.21
2018-03-29T04:41:03.931Z,6.22
2018-03-29T04:42:03.944Z,6.19
2018-03-29T04:43:03.965Z,6.13
2018-03-29T04:44:03.938Z,6.13
2018-03-29T04:45:03.969Z,6.16
2018-03-29T04:46:03.963Z,6.11
2018-03-29T04:47:03.944Z,6.13
2018-03-29T04:48:03.947Z,6.09
2018-03-29T04:49:03.948Z,6.00
2018-03-29T04:50:03.945Z,6.01
2018-03-29T04:51:03.955Z,6.06
2018-03-29T04:52:03.957Z,6.00
2018-03-29T04:53:03.954Z,5.96
2018-03-29T04:54:04.177Z,5.95
2018-03-29T04:55:04.035Z,5.96
2018-03-29T04:56:57.136Z,6.04
2018-03-29T04:57:56.954Z,6.14
2018-03-29T04:59:50.903Z,6.14
2018-03-29T05:00:51.946Z,6.16
2018-03-29T05:02:44.514Z,6.25
2018-03-29T05:03:45.042Z,6.21
2018-03-29T05:05:37.626Z,6.29
2018-03-29T05:06:36.552Z,6.35
2018-03-29T05:08:29.293Z,6.35
2018-03-29T05:09:29.287Z,6.22
2018-03-29T05:11:22.266Z,6.33
2018-03-29T05:12:22.239Z,6.29
2018-03-29T05:14:15.203Z,6.29
2018-03-29T05:15:15.216Z,6.32
2018-03-29T05:17:08.189Z,6.36
2018-03-29T05:18:08.160Z,6.28
2018-03-29T05:20:01.148Z,6.41
2018-03-29T05:21:01.117Z,6.38
2018-03-29T05:22:54.659Z,6.38
2018-03-29T05:23:54.071Z,6.51
2018-03-29T05:25:47.817Z,6.44
2018-03-29T05:26:47.141Z,6.40
2018-03-29T05:28:41.611Z,6.46
2018-03-29T05:29:40.483Z,6.56
2018-03-29T05:31:34.139Z,6.54
2018-03-29T05:32:33.118Z,6.56
2018-03-29T05:34:25.898Z,6.66
2018-03-29T05:35:25.897Z,6.66
2018-03-29T05:37:18.882Z,6.59
2018-03-29T05:38:18.858Z,6.61
2018-03-29T05:40:11.857Z,6.56
2018-03-29T05:41:11.813Z,6.63
2018-03-29T05:42:11.817Z,6.58
2018-03-29T05:43:11.821Z,6.54
2018-03-29T05:44:11.816Z,6.53
2018-03-29T05:45:11.855Z,6.59
2018-03-29T05:46:11.826Z,6.62
2018-03-29T05:47:11.833Z,6.54
2018-03-29T05:48:11.835Z,6.59
2018-03-29T05:49:11.842Z,6.58
2018-03-29T05:50:11.830Z,6.61
2018-03-29T05:51:11.836Z,6.59
2018-03-29T05:52:11.851Z,6.63
2018-03-29T05:53:11.847Z,6.58
2018-03-29T05:54:11.844Z,6.54
2018-03-29T05:55:11.849Z,6.61
2018-03-29T05:56:11.849Z,6.61
2018-03-29T05:57:11.858Z,6.58
2018-03-29T05:58:11.863Z,6.54
2018-03-29T05:59:11.859Z,6.61
2018-03-29T06:00:11.863Z,6.56
2018-03-29T06:01:11.867Z,6.61
2018-03-29T06:02:11.885Z,6.66
2018-03-29T06:03:11.925Z,6.68
2018-03-29T06:04:11.886Z,6.66
2018-03-29T06:05:11.877Z,6.65
2018-03-29T06:06:11.883Z,6.61
2018-03-29T06:07:11.881Z,6.63
2018-03-29T06:08:12.801Z,6.69
2018-03-29T06:09:11.884Z,6.71
2018-03-29T06:10:11.893Z,6.62
2018-03-29T06:11:11.892Z,6.65
2018-03-29T06:12:11.896Z,6.69
2018-03-29T06:13:11.898Z,6.77
2018-03-29T06:14:11.906Z,6.77
2018-03-29T06:15:11.911Z,6.79
2018-03-29T06:16:11.920Z,6.83
2018-03-29T06:17:11.929Z,6.95
2018-03-29T06:18:11.911Z,6.99
2018-03-29T06:20:04.876Z,7.05
2018-03-29T06:21:04.863Z,7.02
2018-03-29T06:22:57.834Z,7.15
2018-03-29T06:23:58.193Z,7.20
2018-03-29T06:25:50.804Z,7.23
2018-03-29T06:26:50.766Z,7.24
2018-03-29T06:28:43.739Z,7.29
2018-03-29T06:29:43.730Z,7.27
2018-03-29T06:31:36.708Z,7.24
2018-03-29T06:32:36.727Z,7.22
2018-03-29T06:34:29.669Z,7.26
2018-03-29T06:35:29.654Z,7.35
2018-03-29T06:37:22.601Z,7.35
2018-03-29T06:38:22.610Z,7.26
2018-03-29T06:40:15.706Z,7.37
2018-03-29T06:41:15.563Z,7.26
2018-03-29T06:43:08.515Z,7.38
2018-03-29T06:44:08.518Z,7.56
2018-03-29T06:46:01.491Z,7.81
2018-03-29T06:47:02.471Z,7.82
2018-03-29T06:49:06.108Z,7.77
2018-03-29T06:50:06.113Z,7.69
2018-03-29T06:51:59.086Z,7.71
2018-03-29T06:52:59.061Z,7.74
2018-03-29T06:54:52.553Z,7.94
2018-03-29T06:55:52.536Z,7.93
2018-03-29T06:57:45.505Z,8.20
2018-03-29T06:58:45.492Z,8.29
2018-03-29T07:00:38.607Z,8.14
2018-03-29T07:01:38.440Z,8.00
2018-03-29T07:03:31.410Z,7.92
2018-03-29T07:04:31.402Z,7.84
2018-03-29T07:06:24.373Z,7.69
2018-03-29T07:07:24.354Z,7.60
2018-03-29T07:09:17.313Z,7.58
2018-03-29T07:10:17.304Z,7.56
2018-03-29T07:12:10.342Z,7.58
2018-03-29T07:13:10.279Z,7.58
2018-03-29T07:14:10.287Z,7.62
2018-03-29T07:15:10.274Z,7.62
2018-03-29T07:16:10.280Z,7.58
2018-03-29T07:17:10.292Z,7.69
2018-03-29T07:18:10.283Z,7.66
2018-03-29T07:19:10.285Z,7.59
2018-03-29T07:21:03.316Z,7.58
2018-03-29T07:22:03.274Z,7.58
2018-03-29T07:23:56.238Z,7.78
2018-03-29T07:24:56.234Z,7.75
2018-03-29T07:26:49.219Z,7.89
2018-03-29T07:27:49.181Z,7.90
2018-03-29T07:29:42.686Z,7.90
2018-03-29T07:30:42.159Z,7.75
2018-03-29T07:32:35.119Z,7.84
2018-03-29T07:33:35.094Z,7.84
2018-03-29T07:35:28.115Z,7.82
2018-03-29T07:36:28.081Z,7.85
2018-03-29T07:38:21.021Z,7.87
2018-03-29T07:39:21.015Z,7.93
2018-03-29T07:41:14.013Z,7.85
2018-03-29T07:42:13.977Z,7.90
2018-03-29T07:44:06.969Z,7.92
2018-03-29T07:45:06.927Z,7.94
2018-03-29T07:47:00.403Z,8.11
2018-03-29T07:47:59.928Z,8.04
2018-03-29T07:48:59.889Z,8.14
2018-03-29T07:49:59.951Z,8.21
2018-03-29T07:50:59.904Z,8.20
2018-03-29T07:51:59.905Z,8.32
2018-03-29T07:52:59.907Z,8.26
2018-03-29T07:53:59.908Z,8.37
2018-03-29T07:54:59.911Z,8.54
2018-03-29T07:55:59.914Z,8.63
2018-03-29T07:56:59.924Z,8.75
2018-03-29T07:57:59.923Z,8.83
2018-03-29T07:58:59.929Z,8.72
2018-03-29T08:00:00.060Z,8.60
2018-03-29T08:00:59.930Z,8.57
2018-03-29T08:01:59.956Z,8.50
2018-03-29T08:02:59.934Z,8.44
2018-03-29T08:03:59.936Z,8.36
2018-03-29T08:04:59.948Z,8.47
2018-03-29T08:05:59.987Z,8.44
2018-03-29T08:06:59.956Z,8.47
2018-03-29T08:07:59.971Z,8.42
2018-03-29T08:09:00.090Z,8.45
2018-03-29T08:09:59.969Z,8.47
2018-03-29T08:10:59.985Z,8.55
2018-03-29T08:11:59.978Z,8.50
2018-03-29T08:12:59.993Z,8.53
2018-03-29T08:13:59.989Z,8.58
2018-03-29T08:14:59.993Z,8.76
2018-03-29T08:15:59.996Z,8.79
2018-03-29T08:16:59.989Z,8.97
2018-03-29T08:18:00.002Z,9.01
2018-03-29T08:18:59.995Z,8.99
2018-03-29T08:20:00.059Z,9.04
2018-03-29T08:21:00.004Z,9.06
2018-03-29T08:22:00.003Z,8.99
2018-03-29T08:23:00.016Z,9.12
2018-03-29T08:24:00.955Z,9.06
2018-03-29T08:25:00.021Z,8.83
2018-03-29T08:26:00.027Z,8.81
2018-03-29T08:27:00.030Z,8.78
2018-03-29T08:28:00.039Z,8.76
2018-03-29T08:29:00.034Z,8.76
2018-03-29T08:30:00.039Z,8.73
2018-03-29T08:31:00.042Z,8.84
2018-03-29T08:32:00.044Z,8.94
2018-03-29T08:33:00.051Z,8.97
2018-03-29T08:34:00.054Z,9.01
2018-03-29T08:35:00.073Z,8.99
2018-03-29T08:36:00.074Z,8.97
2018-03-29T08:37:00.064Z,8.93
2018-03-29T08:38:00.085Z,9.01
2018-03-29T08:39:00.074Z,8.87
2018-03-29T08:40:00.080Z,8.83
2018-03-29T08:41:00.091Z,8.71
2018-03-29T08:42:00.092Z,8.65
2018-03-29T08:43:00.095Z,8.55
2018-03-29T08:44:00.108Z,8.48
2018-03-29T08:45:00.108Z,8.55
2018-03-29T08:46:00.112Z,8.75
2018-03-29T08:47:00.113Z,8.76
2018-03-29T08:48:00.127Z,8.76
2018-03-29T08:49:00.119Z,8.88
2018-03-29T08:50:00.125Z,8.86
2018-03-29T08:51:00.139Z,8.87
2018-03-29T08:52:00.149Z,8.90
2018-03-29T08:53:00.137Z,8.79
2018-03-29T08:54:00.137Z,8.81
2018-03-29T08:55:00.132Z,8.86
2018-03-29T08:56:00.133Z,8.78
2018-03-29T08:57:00.148Z,8.76
2018-03-29T08:58:00.152Z,8.81
2018-03-29T08:59:00.198Z,8.81
2018-03-29T09:00:00.151Z,8.78
2018-03-29T09:01:00.160Z,8.83
2018-03-29T09:02:00.263Z,8.90
2018-03-29T09:03:00.194Z,9.05
2018-03-29T09:04:00.171Z,9.18
2018-03-29T09:05:00.177Z,9.31
2018-03-29T09:06:00.178Z,9.66
2018-03-29T09:07:00.185Z,9.96
2018-03-29T09:08:00.186Z,10.17
2018-03-29T09:09:00.188Z,10.44
2018-03-29T09:10:00.193Z,10.71
2018-03-29T09:11:00.889Z,10.80
2018-03-29T09:12:00.198Z,10.77
2018-03-29T09:13:00.209Z,10.80
2018-03-29T09:14:00.215Z,10.92
2018-03-29T09:15:00.223Z,10.94
2018-03-29T09:16:00.213Z,10.88
2018-03-29T09:17:00.227Z,10.76
2018-03-29T09:18:00.224Z,10.74
2018-03-29T09:19:00.237Z,10.84
2018-03-29T09:20:00.241Z,10.80
2018-03-29T09:21:00.245Z,10.62
2018-03-29T09:22:00.883Z,10.60
2018-03-29T09:23:00.250Z,10.63
2018-03-29T09:24:00.270Z,10.56
2018-03-29T09:25:00.257Z,10.39
2018-03-29T09:26:00.266Z,10.55
2018-03-29T09:27:00.269Z,10.62
2018-03-29T09:28:00.267Z,10.70
2018-03-29T09:29:00.280Z,10.70
2018-03-29T09:30:00.281Z,10.56
2018-03-29T09:31:00.289Z,10.56
2018-03-29T09:32:00.301Z,10.60
2018-03-29T09:33:00.297Z,10.62
2018-03-29T09:34:00.303Z,10.62
2018-03-29T09:35:00.313Z,10.56
2018-03-29T09:36:00.316Z,10.62
2018-03-29T09:37:00.329Z,10.71
2018-03-29T09:38:00.322Z,10.74
2018-03-29T09:39:00.334Z,10.70
2018-03-29T09:40:00.324Z,10.73
2018-03-29T09:41:00.344Z,10.66
2018-03-29T09:42:00.352Z,10.58
2018-03-29T09:43:00.340Z,10.46
2018-03-29T09:44:00.343Z,10.44
2018-03-29T09:45:00.350Z,10.40
2018-03-29T09:46:00.355Z,10.43
2018-03-29T09:47:00.369Z,10.24
2018-03-29T09:48:00.370Z,10.32
2018-03-29T09:49:00.370Z,10.28
2018-03-29T09:50:00.381Z,10.22
2018-03-29T09:51:00.385Z,10.24
2018-03-29T09:52:00.387Z,10.19
2018-03-29T09:53:00.393Z,10.22
2018-03-29T09:54:00.409Z,10.28
2018-03-29T09:55:00.401Z,10.26
2018-03-29T09:56:00.409Z,10.34
2018-03-29T09:57:00.412Z,10.32
2018-03-29T09:58:00.410Z,10.43
2018-03-29T09:59:00.417Z,10.39
2018-03-29T10:00:00.422Z,10.73
2018-03-29T10:01:00.426Z,10.77
2018-03-29T10:02:00.435Z,10.81
2018-03-29T10:03:00.439Z,11.02
2018-03-29T10:04:00.442Z,11.25
2018-03-29T10:05:00.450Z,11.11
2018-03-29T10:06:00.459Z,11.10
2018-03-29T10:07:00.458Z,11.16
2018-03-29T10:08:00.460Z,11.10
2018-03-29T10:09:00.465Z,11.24
2018-03-29T10:10:00.473Z,11.31
2018-03-29T10:11:00.479Z,11.49
2018-03-29T10:12:00.486Z,11.44
2018-03-29T10:13:00.575Z,11.57
2018-03-29T10:14:00.514Z,11.68
2018-03-29T10:15:00.510Z,11.77
2018-03-29T10:16:00.512Z,11.71
2018-03-29T10:17:00.503Z,11.71
2018-03-29T10:18:00.511Z,11.85
2018-03-29T10:19:00.529Z,11.85
2018-03-29T10:20:00.630Z,11.90
2018-03-29T10:21:00.534Z,12.11
2018-03-29T10:22:00.538Z,12.41
2018-03-29T10:23:00.542Z,12.49
2018-03-29T10:24:00.549Z,12.38
2018-03-29T10:25:00.547Z,12.31
2018-03-29T10:26:00.554Z,12.24
2018-03-29T10:27:00.563Z,12.24
2018-03-29T10:28:00.565Z,12.13
2018-03-29T10:29:00.573Z,11.87
2018-03-29T10:30:00.573Z,11.80
2018-03-29T10:31:00.592Z,11.56
2018-03-29T10:32:00.585Z,11.57
2018-03-29T10:33:00.600Z,11.56
2018-03-29T10:34:00.604Z,11.61
2018-03-29T10:35:00.608Z,11.56
2018-03-29T10:36:00.616Z,11.56
2018-03-29T10:37:00.616Z,11.47
2018-03-29T10:38:00.627Z,11.52
2018-03-29T10:39:00.631Z,11.57
2018-03-29T10:40:00.628Z,11.52
2018-03-29T10:41:00.643Z,11.38
2018-03-29T10:42:00.643Z,11.14
2018-03-29T10:43:00.657Z,11.10
2018-03-29T10:44:00.663Z,10.99
2018-03-29T10:45:00.667Z,10.99
2018-03-29T10:46:00.674Z,10.95
2018-03-29T10:47:00.684Z,11.02
2018-03-29T10:48:00.678Z,11.01
2018-03-29T10:49:00.688Z,11.13
2018-03-29T10:50:00.695Z,11.14
2018-03-29T10:51:00.706Z,11.21
2018-03-29T10:52:00.721Z,11.25
2018-03-29T10:53:00.723Z,11.19
2018-03-29T10:54:00.718Z,11.32
2018-03-29T10:55:00.796Z,11.43
2018-03-29T10:56:00.717Z,11.43
2018-03-29T10:57:00.725Z,11.59
2018-03-29T10:58:00.754Z,11.83
2018-03-29T10:59:00.737Z,11.97
2018-03-29T11:00:00.744Z,12.13
2018-03-29T11:01:00.740Z,12.24
2018-03-29T11:02:00.802Z,12.06
2018-03-29T11:03:00.772Z,12.08
2018-03-29T11:04:00.756Z,12.23
2018-03-29T11:05:00.781Z,12.30
2018-03-29T11:06:00.802Z,12.49
2018-03-29T11:07:00.783Z,12.70
2018-03-29T11:08:00.796Z,12.85
2018-03-29T11:09:00.838Z,12.85
2018-03-29T11:10:00.855Z,13.20
2018-03-29T11:11:00.807Z,13.44
2018-03-29T11:12:00.854Z,13.29
2018-03-29T11:13:00.831Z,13.29
2018-03-29T11:14:00.827Z,13.43
2018-03-29T11:15:00.833Z,13.58
2018-03-29T11:16:00.850Z,13.59
2018-03-29T11:17:00.846Z,13.44
2018-03-29T11:18:00.863Z,13.54
2018-03-29T11:19:00.884Z,13.71
2018-03-29T11:20:00.891Z,13.69
2018-03-29T11:21:00.877Z,13.54
2018-03-29T11:22:00.914Z,13.69
2018-03-29T11:23:00.903Z,13.55
2018-03-29T11:24:00.909Z,13.44
2018-03-29T11:25:01.001Z,13.22
2018-03-29T11:26:00.943Z,13.03
2018-03-29T11:27:00.952Z,12.99
2018-03-29T11:28:00.948Z,13.33
2018-03-29T11:29:01.006Z,13.30
2018-03-29T11:30:01.019Z,13.17
2018-03-29T11:31:00.966Z,13.22
2018-03-29T11:32:00.984Z,12.97
2018-03-29T11:33:00.984Z,12.74
2018-03-29T11:34:00.996Z,12.79
2018-03-29T11:35:00.999Z,13.18
2018-03-29T11:36:01.018Z,13.56
2018-03-29T11:37:01.020Z,13.67
2018-03-29T11:38:01.030Z,14.10
2018-03-29T11:39:01.036Z,14.09
2018-03-29T11:40:01.043Z,14.09
2018-03-29T11:41:01.071Z,14.10
2018-03-29T11:42:01.088Z,14.07
2018-03-29T11:43:01.073Z,13.89
2018-03-29T11:44:01.092Z,13.92
2018-03-29T11:45:01.109Z,13.77
2018-03-29T11:46:01.096Z,13.98
2018-03-29T11:47:01.104Z,14.07
2018-03-29T11:48:01.115Z,14.07
2018-03-29T11:49:01.126Z,14.13
2018-03-29T11:50:01.133Z,13.95
2018-03-29T11:51:01.144Z,14.10
2018-03-29T11:52:01.146Z,13.99
2018-03-29T11:53:01.246Z,13.89
2018-03-29T11:54:01.174Z,13.95
2018-03-29T11:55:01.182Z,14.06
2018-03-29T11:56:01.199Z,14.14
2018-03-29T11:57:01.194Z,14.38
2018-03-29T11:58:01.213Z,14.49
2018-03-29T11:59:01.223Z,14.72
2018-03-29T12:00:01.225Z,14.49
2018-03-29T12:01:01.264Z,14.53
2018-03-29T12:02:01.277Z,14.39
2018-03-29T12:03:01.261Z,14.42
2018-03-29T12:04:01.270Z,14.24
2018-03-29T12:05:01.308Z,14.13
2018-03-29T12:06:01.284Z,14.12
2018-03-29T12:07:01.292Z,13.98
2018-03-29T12:08:01.304Z,13.95
2018-03-29T12:09:01.309Z,13.84
2018-03-29T12:10:01.319Z,13.73
2018-03-29T12:11:01.340Z,13.46
2018-03-29T12:12:01.343Z,13.38
2018-03-29T12:13:01.408Z,13.41
2018-03-29T12:14:01.487Z,13.43
2018-03-29T12:15:01.365Z,13.59
2018-03-29T12:16:01.375Z,13.65
2018-03-29T12:17:01.379Z,13.73
2018-03-29T12:18:01.392Z,13.63
2018-03-29T12:19:01.403Z,13.71
2018-03-29T12:20:01.407Z,13.89
2018-03-29T12:21:01.417Z,13.89
2018-03-29T12:22:01.421Z,14.09
2018-03-29T12:23:01.435Z,14.10
2018-03-29T12:24:01.447Z,14.35
2018-03-29T12:25:01.504Z,14.32
2018-03-29T12:26:01.476Z,14.31
2018-03-29T12:27:01.468Z,14.27
2018-03-29T12:28:01.476Z,14.24
2018-03-29T12:29:01.481Z,14.29
2018-03-29T12:30:01.494Z,14.24
2018-03-29T12:31:01.499Z,14.24
2018-03-29T12:32:01.501Z,13.98
2018-03-29T12:33:01.529Z,13.76
2018-03-29T12:34:01.518Z,13.76
2018-03-29T12:35:01.538Z,13.52
2018-03-29T12:36:01.554Z,13.51
2018-03-29T12:37:01.540Z,13.46
2018-03-29T12:38:01.560Z,13.54
2018-03-29T12:39:01.552Z,13.63
2018-03-29T12:40:01.556Z,13.81
2018-03-29T12:41:01.561Z,13.80
2018-03-29T12:42:01.570Z,13.84
2018-03-29T12:43:01.577Z,13.89
2018-03-29T12:44:01.584Z,13.92
2018-03-29T12:45:01.993Z,13.84
2018-03-29T12:46:01.598Z,13.80
2018-03-29T12:47:01.609Z,13.67
2018-03-29T12:48:01.619Z,13.56
2018-03-29T12:49:01.619Z,13.37
2018-03-29T12:50:01.627Z,13.36
2018-03-29T12:51:01.653Z,13.27
2018-03-29T12:52:01.753Z,13.33
2018-03-29T12:53:01.648Z,13.44
2018-03-29T12:54:01.657Z,13.56
2018-03-29T12:55:01.659Z,13.51
2018-03-29T12:56:01.672Z,13.44
2018-03-29T12:57:01.689Z,13.24
2018-03-29T12:58:01.685Z,13.15
2018-03-29T12:59:01.684Z,12.93
2018-03-29T13:00:01.691Z,12.88
2018-03-29T13:01:01.701Z,12.84
2018-03-29T13:02:01.701Z,12.81
2018-03-29T13:03:01.721Z,12.62
2018-03-29T13:04:01.718Z,12.57
2018-03-29T13:05:01.728Z,12.56
2018-03-29T13:06:01.728Z,12.51
2018-03-29T13:07:01.731Z,12.19
2018-03-29T13:08:01.739Z,11.83
2018-03-29T13:09:01.752Z,11.70
2018-03-29T13:10:01.750Z,11.41
2018-03-29T13:11:01.760Z,11.13
2018-03-29T13:12:01.770Z,11.09
2018-03-29T13:13:01.774Z,10.84
2018-03-29T13:14:01.779Z,10.65
2018-03-29T13:15:01.784Z,10.55
2018-03-29T13:16:01.792Z,10.56
2018-03-29T13:17:01.793Z,10.60
2018-03-29T13:18:01.815Z,10.76
2018-03-29T13:19:01.807Z,10.89
2018-03-29T13:20:01.812Z,10.91
2018-03-29T13:21:01.819Z,11.07
2018-03-29T13:22:01.823Z,11.13
2018-03-29T13:23:01.831Z,11.29
2018-03-29T13:24:01.838Z,11.36
2018-03-29T13:25:01.829Z,11.39
2018-03-29T13:26:01.832Z,11.57
2018-03-29T13:27:01.906Z,11.61
2018-03-29T13:28:01.842Z,11.57
2018-03-29T13:29:01.857Z,11.64
2018-03-29T13:30:01.860Z,11.47
2018-03-29T13:31:01.858Z,11.31
2018-03-29T13:32:01.864Z,11.25
2018-03-29T13:33:01.871Z,10.86
2018-03-29T13:34:01.895Z,10.68
2018-03-29T13:35:01.888Z,10.55
2018-03-29T13:36:01.882Z,10.43
2018-03-29T13:37:01.887Z,10.43
2018-03-29T13:38:01.896Z,10.40
2018-03-29T13:39:01.900Z,10.36
2018-03-29T13:40:01.917Z,10.43
2018-03-29T13:41:01.913Z,10.30
2018-03-29T13:42:01.936Z,10.32
2018-03-29T13:43:01.926Z,10.42
2018-03-29T13:44:01.929Z,10.55
2018-03-29T13:45:01.941Z,10.60
2018-03-29T13:46:01.958Z,10.62
2018-03-29T13:47:01.940Z,10.80
2018-03-29T13:48:01.940Z,10.80
2018-03-29T13:49:01.946Z,10.96
2018-03-29T13:50:01.952Z,11.07
2018-03-29T13:51:01.946Z,11.11
2018-03-29T13:52:01.961Z,11.25
2018-03-29T13:53:01.959Z,11.41
2018-03-29T13:54:01.961Z,11.34
2018-03-29T13:55:02.232Z,11.43
2018-03-29T13:56:01.976Z,11.65
2018-03-29T13:57:02.968Z,11.77
2018-03-29T13:58:01.987Z,11.50
2018-03-29T13:59:02.001Z,11.47
2018-03-29T14:00:01.994Z,11.57
2018-03-29T14:01:02.025Z,11.62
2018-03-29T14:02:02.010Z,11.65
2018-03-29T14:03:02.004Z,11.59
2018-03-29T14:04:02.033Z,11.52
2018-03-29T14:05:02.010Z,11.52
2018-03-29T14:06:02.030Z,11.56
2018-03-29T14:07:02.034Z,11.70
2018-03-29T14:08:02.032Z,11.74
2018-03-29T14:09:02.047Z,11.83
2018-03-29T14:10:02.058Z,11.96
2018-03-29T14:11:02.042Z,11.87
2018-03-29T14:12:02.050Z,11.97
2018-03-29T14:13:02.092Z,12.04
2018-03-29T14:14:02.080Z,12.06
2018-03-29T14:15:02.070Z,12.02
2018-03-29T14:16:02.074Z,11.97
2018-03-29T14:17:02.107Z,12.04
2018-03-29T14:18:02.100Z,11.90
2018-03-29T14:19:02.095Z,11.68
2018-03-29T14:20:02.105Z,11.74
2018-03-29T14:21:02.104Z,11.77
2018-03-29T14:22:02.112Z,11.74
2018-03-29T14:23:02.109Z,11.75
2018-03-29T14:24:02.121Z,11.74
2018-03-29T14:25:02.122Z,11.80
2018-03-29T14:26:02.128Z,11.74
2018-03-29T14:27:02.130Z,11.77
2018-03-29T14:28:02.129Z,11.68
2018-03-29T14:29:02.151Z,11.80
2018-03-29T14:30:02.150Z,11.72